createdAt,value
2019-04-23T00:02:19.211Z,14.70
2019-04-23T00:07:43.116Z,14.60
2019-04-23T00:12:43.843Z,14.50
2019-04-23T00:17:42.513Z,14.50
2019-04-23T00:23:16.410Z,14.40
2019-04-23T00:33:30.242Z,14.30
2019-04-23T00:38:38.935Z,14.20
2019-04-23T00:43:47.099Z,14.10
2019-04-23T00:53:56.779Z,13.90
2019-04-23T00:59:05.275Z,13.80
2019-04-23T01:04:15.721Z,13.80
2019-04-23T01:09:22.721Z,13.70
2019-04-23T01:14:27.478Z,13.60
2019-04-23T01:19:54.725Z,13.60
2019-04-23T01:24:48.233Z,13.50
2019-04-23T01:35:51.106Z,13.40
2019-04-23T01:45:30.766Z,13.30
2019-04-23T01:50:52.833Z,13.30
2019-04-23T02:11:13.347Z,13.10
2019-04-23T02:16:24.649Z,13.10
2019-04-23T02:21:35.127Z,13.10
2019-04-23T02:26:39.862Z,13.00
2019-04-23T02:31:57.657Z,13.00
2019-04-23T02:42:23.302Z,12.80
2019-04-23T02:52:21.803Z,12.80
2019-04-23T02:57:29.092Z,12.80
2019-04-23T03:13:04.428Z,12.60
2019-04-23T03:18:39.796Z,12.60
2019-04-23T03:28:46.334Z,12.60
2019-04-23T03:38:51.974Z,12.50
2019-04-23T03:43:51.599Z,12.50
2019-04-23T03:54:26.004Z,12.50
2019-04-23T03:59:22.751Z,12.50
2019-04-23T04:04:24.754Z,12.40
2019-04-23T04:09:34.180Z,12.50
2019-04-23T04:14:46.323Z,12.40
2019-04-23T04:24:48.281Z,12.50
2019-04-23T04:30:02.377Z,12.50
2019-04-23T04:35:18.939Z,12.50
2019-04-23T04:45:37.004Z,12.60
2019-04-23T04:50:24.189Z,12.70
2019-04-23T04:55:41.222Z,12.80
2019-04-23T05:00:59.083Z,12.90
2019-04-23T05:06:04.999Z,13.00
2019-04-23T05:11:02.049Z,13.20
2019-04-23T05:26:20.994Z,13.70
2019-04-23T05:31:23.303Z,13.80
2019-04-23T05:46:49.061Z,14.40
2019-04-23T05:51:55.042Z,14.40
2019-04-23T05:56:55.063Z,14.60
2019-04-23T06:02:23.208Z,14.90
2019-04-23T06:07:31.386Z,15.20
2019-04-23T06:12:21.406Z,15.60
2019-04-23T06:17:27.139Z,16.10
2019-04-23T06:22:42.401Z,17.00
2019-04-23T06:27:37.980Z,18.40
2019-04-23T06:32:52.138Z,19.50
2019-04-23T06:38:26.176Z,20.90
2019-04-23T06:48:32.127Z,24.50
2019-04-23T06:53:27.320Z,26.90
2019-04-23T06:58:37.350Z,29.40
2019-04-23T07:09:09.661Z,30.80
2019-04-23T07:13:58.291Z,30.60
2019-04-23T07:19:09.223Z,29.80
2019-04-23T07:24:15.284Z,27.90
2019-04-23T07:34:26.382Z,26.40
2019-04-23T07:40:06.192Z,28.00
2019-04-23T07:45:17.397Z,30.00
2019-04-23T07:50:35.579Z,29.90
2019-04-23T07:55:34.434Z,29.00
2019-04-23T08:00:41.911Z,28.90
2019-04-23T08:05:39.790Z,29.20
2019-04-23T08:16:35.809Z,28.90
2019-04-23T08:21:30.706Z,28.50
2019-04-23T08:26:59.558Z,28.60
2019-04-23T08:32:12.368Z,30.40
2019-04-23T08:37:15.444Z,32.00
2019-04-23T08:42:37.997Z,32.50
2019-04-23T08:47:37.878Z,32.40
2019-04-23T08:52:43.032Z,30.50
2019-04-23T08:57:43.730Z,28.50
2019-04-23T09:03:02.757Z,27.10
2019-04-23T09:18:22.087Z,26.90
2019-04-23T09:23:36.361Z,27.10
2019-04-23T09:28:40.141Z,28.20
2019-04-23T09:39:10.553Z,30.10
2019-04-23T09:44:42.679Z,31.10
2019-04-23T09:49:26.041Z,32.10
2019-04-23T09:59:44.432Z,32.00
2019-04-23T10:04:36.199Z,30.40
2019-04-23T10:09:28.136Z,29.20
2019-04-23T10:14:34.526Z,27.70
2019-04-23T10:19:40.647Z,25.90
2019-04-23T10:24:46.267Z,24.80
2019-04-23T10:29:54.098Z,24.30
2019-04-23T10:35:10.155Z,23.80
2019-04-23T10:40:11.316Z,23.40
2019-04-23T10:45:34.906Z,23.10
2019-04-23T10:51:04.420Z,22.90
2019-04-23T10:56:18.499Z,22.80
2019-04-23T11:01:22.830Z,22.60
2019-04-23T11:06:41.381Z,22.50
2019-04-23T11:21:43.683Z,22.90
2019-04-23T11:26:49.566Z,22.90
2019-04-23T11:32:19.356Z,23.00
2019-04-23T11:42:16.888Z,23.30
2019-04-23T11:47:59.198Z,23.20
2019-04-23T11:52:35.667Z,23.20
2019-04-23T11:58:02.713Z,23.30
2019-04-23T12:13:26.917Z,23.30
2019-04-23T12:18:34.916Z,23.30
2019-04-23T12:23:49.867Z,23.30
2019-04-23T12:28:45.520Z,23.40
2019-04-23T12:33:50.523Z,23.20
2019-04-23T12:38:56.436Z,23.20
2019-04-23T12:44:10.620Z,23.10
2019-04-23T12:49:28.668Z,23.00
2019-04-23T12:54:37.358Z,23.00
2019-04-23T12:59:28.676Z,23.30
2019-04-23T13:04:38.296Z,23.50
2019-04-23T13:09:54.492Z,23.60
2019-04-23T13:15:00.781Z,23.60
2019-04-23T13:20:00.705Z,23.60
2019-04-23T13:25:19.983Z,23.60
2019-04-23T13:30:34.416Z,23.60
2019-04-23T13:35:53.248Z,23.50
2019-04-23T13:45:59.211Z,23.40
2019-04-23T13:56:02.120Z,23.50
2019-04-23T14:11:26.324Z,23.50
2019-04-23T14:21:51.721Z,23.30
2019-04-23T14:26:38.458Z,23.50
2019-04-23T14:32:01.318Z,23.40
2019-04-23T14:42:35.217Z,23.40
2019-04-23T14:52:31.029Z,23.40
2019-04-23T14:57:34.104Z,23.40
2019-04-23T15:07:42.182Z,23.50
2019-04-23T15:12:53.928Z,23.40
2019-04-23T15:18:01.837Z,23.40
2019-04-23T15:23:33.433Z,23.40
2019-04-23T15:28:06.775Z,23.30
2019-04-23T15:33:29.918Z,23.40
2019-04-23T15:43:41.167Z,23.20
2019-04-23T15:48:42.735Z,23.10
2019-04-23T15:53:48.519Z,22.90
2019-04-23T16:03:35.993Z,22.70
2019-04-23T16:14:33.223Z,22.70
2019-04-23T16:19:42.899Z,22.70
2019-04-23T16:24:57.296Z,22.70
2019-04-23T16:35:15.661Z,22.60
2019-04-23T16:40:19.911Z,22.50
2019-04-23T16:45:29.373Z,22.50
2019-04-23T16:50:29.216Z,22.40
2019-04-23T16:55:37.822Z,22.40
2019-04-23T17:05:53.859Z,22.30
2019-04-23T17:11:00.155Z,22.20
2019-04-23T17:16:06.766Z,22.10
2019-04-23T17:21:20.250Z,22.00
2019-04-23T17:26:19.107Z,21.90
2019-04-23T17:36:56.131Z,21.70
2019-04-23T17:42:18.167Z,21.60
2019-04-23T17:47:24.345Z,21.50
2019-04-23T17:52:26.274Z,21.30
2019-04-23T17:57:28.317Z,21.20
2019-04-23T18:07:53.994Z,21.00
2019-04-23T18:18:26.832Z,20.70
2019-04-23T18:23:09.655Z,20.60
2019-04-23T18:28:08.483Z,20.50
2019-04-23T18:38:41.592Z,20.40
2019-04-23T18:43:50.968Z,20.30
2019-04-23T18:49:15.864Z,20.30
2019-04-23T18:54:03.062Z,20.20
2019-04-23T18:59:15.002Z,20.10
2019-04-23T19:04:41.599Z,20.10
2019-04-23T19:10:17.102Z,20.00
2019-04-23T19:15:22.278Z,19.90
2019-04-23T19:20:29.829Z,19.90
2019-04-23T19:30:49.564Z,19.70
2019-04-23T19:41:00.253Z,19.50
2019-04-23T19:46:02.023Z,19.40
2019-04-23T20:06:51.792Z,19.30
2019-04-23T20:11:42.290Z,19.30
2019-04-23T20:16:50.306Z,19.30
2019-04-23T20:21:59.224Z,19.20
2019-04-23T20:27:10.572Z,19.20
2019-04-23T20:37:25.466Z,19.20
2019-04-23T20:42:33.914Z,19.20
2019-04-23T20:47:34.488Z,19.20
2019-04-23T20:52:41.430Z,19.20
2019-04-23T20:57:48.473Z,19.10
2019-04-23T21:03:26.056Z,19.00
2019-04-23T21:08:14.827Z,19.00
2019-04-23T21:18:44.820Z,18.80
2019-04-23T21:23:37.630Z,18.70
2019-04-23T21:28:47.476Z,18.60
2019-04-23T21:34:06.122Z,18.50
2019-04-23T21:44:28.015Z,18.30
2019-04-23T21:54:49.179Z,18.20
2019-04-23T21:59:55.509Z,18.20
2019-04-23T22:05:01.146Z,18.20
2019-04-23T22:15:13.022Z,18.20
2019-04-23T22:20:25.765Z,18.10
2019-04-23T22:25:44.297Z,18.00
2019-04-23T22:30:50.002Z,18.00
2019-04-23T22:36:01.388Z,17.90
2019-04-23T22:40:58.489Z,17.90
2019-04-23T22:51:10.608Z,17.80
2019-04-23T22:56:13.769Z,17.90
2019-04-23T23:01:26.627Z,17.90
2019-04-23T23:06:43.519Z,17.80
2019-04-23T23:11:45.707Z,17.90
2019-04-23T23:27:02.428Z,17.90
2019-04-23T23:32:23.019Z,18.00
2019-04-23T23:37:12.177Z,18.00
2019-04-23T23:42:25.310Z,18.00
2019-04-23T23:47:29.549Z,17.90
2019-04-23T23:52:48.966Z,17.90
2019-04-23T23:57:50.381Z,17.90
